createdAt,value
2022-12-05T00:01:26.540Z,15.17
2022-12-05T00:03:56.129Z,15.30
2022-12-05T00:06:25.596Z,19.60
2022-12-05T00:08:54.334Z,22.07
2022-12-05T00:11:24.674Z,14.90
2022-12-05T00:13:54.545Z,12.70
2022-12-05T00:16:26.393Z,17.30
2022-12-05T00:18:55.316Z,16.00
2022-12-05T00:21:26.097Z,14.97
2022-12-05T00:23:56.536Z,20.10
2022-12-05T00:26:24.989Z,16.60
2022-12-05T00:28:53.484Z,18.03
2022-12-05T00:31:23.110Z,19.53
2022-12-05T00:33:53.087Z,17.30
2022-12-05T00:36:22.679Z,14.43
2022-12-05T00:38:50.460Z,13.83
2022-12-05T00:41:21.032Z,19.23
2022-12-05T00:43:48.723Z,15.73
2022-12-05T00:46:18.673Z,14.70
2022-12-05T00:48:47.433Z,16.67
2022-12-05T00:51:18.840Z,13.80
2022-12-05T00:53:47.200Z,17.07
2022-12-05T00:56:17.116Z,15.47
2022-12-05T00:58:45.917Z,17.27
2022-12-05T01:01:16.624Z,13.97
2022-12-05T01:03:46.167Z,18.67
2022-12-05T01:06:16.821Z,17.13
2022-12-05T01:08:46.799Z,11.70
2022-12-05T01:11:17.678Z,14.03
2022-12-05T01:13:46.549Z,17.80
2022-12-05T01:16:17.255Z,16.80
2022-12-05T01:18:45.150Z,17.03
2022-12-05T01:21:13.510Z,15.87
2022-12-05T01:23:42.553Z,13.67
2022-12-05T01:26:13.340Z,14.43
2022-12-05T01:28:41.996Z,15.23
2022-12-05T01:31:17.247Z,17.73
2022-12-05T01:33:45.058Z,16.80
2022-12-05T01:36:13.937Z,16.93
2022-12-05T01:38:44.496Z,17.87
2022-12-05T01:41:16.644Z,16.63
2022-12-05T01:43:57.199Z,15.50
2022-12-05T01:46:25.704Z,13.00
2022-12-05T01:48:59.684Z,18.80
2022-12-05T01:51:27.757Z,16.30
2022-12-05T01:53:58.289Z,14.90
2022-12-05T01:56:26.624Z,14.67
2022-12-05T01:58:55.575Z,15.63
2022-12-05T02:01:23.454Z,14.20
2022-12-05T02:03:54.923Z,16.00
2022-12-05T02:06:24.685Z,15.67
2022-12-05T02:08:54.102Z,17.70
2022-12-05T02:11:26.551Z,15.20
2022-12-05T02:14:07.383Z,15.10
2022-12-05T02:16:48.888Z,14.07
2022-12-05T02:19:44.685Z,14.90
2022-12-05T02:22:29.552Z,16.30
2022-12-05T02:25:17.393Z,23.43
2022-12-05T02:28:11.211Z,17.57
2022-12-05T02:30:44.725Z,15.70
2022-12-05T02:33:22.331Z,18.77
2022-12-05T02:35:59.680Z,18.70
2022-12-05T02:38:32.479Z,19.90
2022-12-05T02:41:10.707Z,15.43
2022-12-05T02:43:42.923Z,17.37
2022-12-05T02:46:18.815Z,22.23
2022-12-05T02:48:49.253Z,16.60
2022-12-05T02:51:23.615Z,17.13
2022-12-05T02:53:54.399Z,16.00
2022-12-05T02:56:23.612Z,14.40
2022-12-05T02:58:56.345Z,21.70
2022-12-05T03:01:31.194Z,15.77
2022-12-05T03:04:04.000Z,18.23
2022-12-05T03:06:36.656Z,12.10
2022-12-05T03:09:08.285Z,17.63
2022-12-05T03:11:41.366Z,19.30
2022-12-05T03:14:14.264Z,16.73
2022-12-05T03:16:48.517Z,19.60
2022-12-05T03:19:23.271Z,18.87
2022-12-05T03:21:58.595Z,17.03
2022-12-05T03:24:27.028Z,16.87
2022-12-05T03:27:09.545Z,16.23
2022-12-05T03:29:43.699Z,18.83
2022-12-05T03:32:22.737Z,16.30
2022-12-05T03:35:00.697Z,15.70
2022-12-05T03:37:35.132Z,17.93
2022-12-05T03:40:08.696Z,16.17
2022-12-05T03:42:43.485Z,17.60
2022-12-05T03:45:17.485Z,18.47
2022-12-05T03:47:54.483Z,16.40
2022-12-05T03:50:27.623Z,25.83
2022-12-05T03:55:59.753Z,15.83
2022-12-05T03:58:32.663Z,19.13
2022-12-05T04:01:03.172Z,16.40
2022-12-05T04:03:40.691Z,18.97
2022-12-05T04:06:18.376Z,22.00
2022-12-05T04:08:51.437Z,17.77
2022-12-05T04:11:23.142Z,17.57
2022-12-05T04:13:55.504Z,17.87
2022-12-05T04:16:43.798Z,20.27
2022-12-05T04:19:20.954Z,15.77
2022-12-05T04:21:50.535Z,17.20
2022-12-05T04:24:40.938Z,17.20
2022-12-05T04:27:22.261Z,20.20
2022-12-05T04:29:58.345Z,17.00
2022-12-05T04:32:30.930Z,18.70
2022-12-05T04:35:05.432Z,21.80
2022-12-05T04:37:37.054Z,23.30
2022-12-05T04:40:11.274Z,18.17
2022-12-05T04:42:44.254Z,18.70
2022-12-05T04:45:17.297Z,17.77
2022-12-05T04:47:49.616Z,17.37
2022-12-05T04:50:20.642Z,18.23
2022-12-05T04:52:52.870Z,19.30
2022-12-05T04:55:26.115Z,19.17
2022-12-05T04:58:06.028Z,18.87
2022-12-05T05:00:39.163Z,17.23
2022-12-05T05:03:14.309Z,17.37
2022-12-05T05:05:48.090Z,15.20
2022-12-05T05:08:21.546Z,18.90
2022-12-05T05:10:59.179Z,20.77
2022-12-05T05:13:27.401Z,15.33
2022-12-05T05:15:57.917Z,17.67
2022-12-05T05:18:26.017Z,19.70
2022-12-05T05:20:55.617Z,18.17
2022-12-05T05:23:24.093Z,18.00
2022-12-05T05:25:56.513Z,24.77
2022-12-05T05:28:25.252Z,18.00
2022-12-05T05:30:53.162Z,16.10
2022-12-05T05:33:22.060Z,17.17
2022-12-05T05:35:50.171Z,21.00
2022-12-05T05:38:19.779Z,18.50
2022-12-05T05:40:47.570Z,15.30
2022-12-05T05:43:15.868Z,16.57
2022-12-05T05:45:43.843Z,17.87
2022-12-05T05:48:11.893Z,17.97
2022-12-05T05:50:39.911Z,16.50
2022-12-05T05:53:12.440Z,17.23
2022-12-05T05:55:45.552Z,18.17
2022-12-05T05:58:13.854Z,19.00
2022-12-05T06:00:42.003Z,21.13
2022-12-05T06:03:10.518Z,24.90
2022-12-05T06:05:39.308Z,16.40
2022-12-05T06:08:07.580Z,19.33
2022-12-05T06:10:35.447Z,16.13
2022-12-05T06:13:04.671Z,14.73
2022-12-05T06:15:32.832Z,14.53
2022-12-05T06:18:01.665Z,19.07
2022-12-05T06:20:30.293Z,18.97
2022-12-05T06:22:58.099Z,17.80
2022-12-05T06:25:26.829Z,18.63
2022-12-05T06:27:55.111Z,18.10
2022-12-05T06:30:30.072Z,18.70
2022-12-05T06:32:58.979Z,16.57
2022-12-05T06:35:27.231Z,16.87
2022-12-05T06:37:55.482Z,31.30
2022-12-05T06:40:23.945Z,19.00
2022-12-05T06:42:51.677Z,21.50
2022-12-05T06:45:19.850Z,22.10
2022-12-05T06:47:49.341Z,19.00
2022-12-05T06:50:18.116Z,17.43
2022-12-05T06:52:46.233Z,20.80
2022-12-05T06:55:14.426Z,22.83
2022-12-05T06:57:42.620Z,18.70
2022-12-05T07:00:29.172Z,19.10
2022-12-05T07:02:59.177Z,17.37
2022-12-05T07:05:27.453Z,19.27
2022-12-05T07:07:59.363Z,15.53
2022-12-05T07:10:27.567Z,20.83
2022-12-05T07:12:56.225Z,20.37
2022-12-05T07:15:25.219Z,14.90
2022-12-05T07:17:53.610Z,20.15
2022-12-05T07:20:23.069Z,18.20
2022-12-05T07:22:51.415Z,20.07
2022-12-05T07:25:20.270Z,20.30
2022-12-05T07:27:48.494Z,18.10
2022-12-05T07:30:16.642Z,17.30
2022-12-05T07:32:45.143Z,19.03
2022-12-05T07:35:13.065Z,19.67
2022-12-05T07:37:43.688Z,17.93
2022-12-05T07:40:13.060Z,19.00
2022-12-05T07:42:40.787Z,17.30
2022-12-05T07:45:09.810Z,15.93
2022-12-05T07:47:38.604Z,23.50
2022-12-05T07:50:07.864Z,25.07
2022-12-05T07:52:35.966Z,23.10
2022-12-05T07:55:05.712Z,18.13
2022-12-05T07:57:34.158Z,18.40
2022-12-05T08:00:01.979Z,18.13
2022-12-05T08:02:29.784Z,15.93
2022-12-05T08:04:57.605Z,19.07
2022-12-05T08:07:25.629Z,23.23
2022-12-05T08:09:53.489Z,21.07
2022-12-05T08:12:22.907Z,24.03
2022-12-05T08:14:50.693Z,23.30
2022-12-05T08:17:18.897Z,23.87
2022-12-05T08:19:46.665Z,27.40
2022-12-05T08:22:14.713Z,24.57
2022-12-05T08:24:43.346Z,20.50
2022-12-05T08:27:11.267Z,21.53
2022-12-05T08:29:40.537Z,17.40
2022-12-05T08:32:08.333Z,15.83
2022-12-05T08:34:35.987Z,19.43
2022-12-05T08:37:04.549Z,16.37
2022-12-05T08:39:37.973Z,18.90
2022-12-05T08:42:06.694Z,19.40
2022-12-05T08:44:34.739Z,13.47
2022-12-05T08:47:03.672Z,14.60
2022-12-05T08:49:31.306Z,15.43
2022-12-05T08:51:58.962Z,15.03
2022-12-05T08:54:26.974Z,14.77
2022-12-05T08:56:54.722Z,18.17
2022-12-05T08:59:22.420Z,12.70
2022-12-05T09:01:51.514Z,12.47
2022-12-05T09:04:20.750Z,11.03
2022-12-05T09:06:49.148Z,17.17
2022-12-05T09:09:17.782Z,15.13
2022-12-05T09:11:49.117Z,13.90
2022-12-05T09:14:18.035Z,12.77
2022-12-05T09:16:47.587Z,12.33
2022-12-05T09:19:18.441Z,13.90
2022-12-05T09:21:48.103Z,15.23
2022-12-05T09:24:16.094Z,10.53
2022-12-05T09:26:43.827Z,13.33
2022-12-05T09:29:16.749Z,13.50
2022-12-05T09:31:47.400Z,13.33
2022-12-05T09:34:15.869Z,14.23
2022-12-05T09:36:45.484Z,10.50
2022-12-05T09:39:14.483Z,15.20
2022-12-05T09:42:09.288Z,13.03
2022-12-05T09:44:43.816Z,12.57
2022-12-05T09:47:22.845Z,10.40
2022-12-05T09:49:56.949Z,12.10
2022-12-05T09:52:28.026Z,9.60
2022-12-05T09:55:02.306Z,8.63
2022-12-05T09:57:36.523Z,12.93
2022-12-05T10:00:08.896Z,11.40
2022-12-05T10:02:46.737Z,9.70
2022-12-05T10:05:21.177Z,12.13
2022-12-05T10:07:57.598Z,10.90
2022-12-05T10:10:34.628Z,9.80
2022-12-05T10:13:41.649Z,13.20
2022-12-05T10:16:14.509Z,10.93
2022-12-05T10:18:46.620Z,9.37
2022-12-05T10:21:19.882Z,12.10
2022-12-05T10:23:58.528Z,12.77
2022-12-05T10:26:31.752Z,11.90
2022-12-05T10:29:07.477Z,9.23
2022-12-05T10:31:38.220Z,11.77
2022-12-05T10:34:17.699Z,11.17
2022-12-05T10:36:55.955Z,14.80
2022-12-05T10:39:24.693Z,11.50
2022-12-05T10:41:53.960Z,11.60
2022-12-05T10:44:22.016Z,9.63
2022-12-05T10:46:50.053Z,11.57
2022-12-05T10:49:19.886Z,9.70
2022-12-05T10:51:48.936Z,9.20
2022-12-05T10:54:21.261Z,11.20
2022-12-05T10:56:52.080Z,8.53
2022-12-05T10:59:22.966Z,11.10
2022-12-05T11:01:53.789Z,7.83
2022-12-05T11:04:25.464Z,8.10
2022-12-05T11:06:59.328Z,13.60
2022-12-05T11:09:29.615Z,11.47
2022-12-05T11:12:04.019Z,12.63
2022-12-05T11:14:36.099Z,9.03
2022-12-05T11:17:06.277Z,10.20
2022-12-05T11:19:35.699Z,11.10
2022-12-05T11:22:04.742Z,12.27
2022-12-05T11:24:35.352Z,9.20
2022-12-05T11:27:21.637Z,11.03
2022-12-05T11:30:01.400Z,12.23
2022-12-05T11:32:31.530Z,12.43
2022-12-05T11:35:24.168Z,9.07
2022-12-05T11:37:55.113Z,10.60
2022-12-05T11:40:37.725Z,11.10
2022-12-05T11:43:24.539Z,13.07
2022-12-05T11:46:04.148Z,10.37
2022-12-05T11:48:57.182Z,11.67
2022-12-05T11:51:38.755Z,15.50
2022-12-05T11:55:05.022Z,9.80
2022-12-05T11:58:06.348Z,10.03
2022-12-05T12:00:41.051Z,10.30
2022-12-05T12:03:34.800Z,14.10
2022-12-05T12:06:25.049Z,11.70
2022-12-05T12:09:08.891Z,11.70
2022-12-05T12:11:44.655Z,12.53
2022-12-05T12:14:20.763Z,14.00
2022-12-05T12:16:59.282Z,11.90
2022-12-05T12:19:44.138Z,9.20
2022-12-05T12:22:32.743Z,10.80
2022-12-05T12:25:15.128Z,10.10
2022-12-05T12:27:54.234Z,9.90
2022-12-05T12:30:29.180Z,13.23
2022-12-05T12:33:06.561Z,11.33
2022-12-05T12:35:43.310Z,16.27
2022-12-05T12:38:35.714Z,9.80
2022-12-05T12:41:12.375Z,11.50
2022-12-05T12:43:54.142Z,8.33
2022-12-05T12:46:44.134Z,13.53
2022-12-05T12:49:41.100Z,12.90
2022-12-05T12:52:16.377Z,13.30
2022-12-05T12:55:05.201Z,9.83
2022-12-05T12:57:47.087Z,12.77
2022-12-05T13:00:24.534Z,13.80
2022-12-05T13:02:56.037Z,10.87
2022-12-05T13:05:36.058Z,12.03
2022-12-05T13:08:08.363Z,11.40
2022-12-05T13:10:40.947Z,11.13
2022-12-05T13:13:15.223Z,12.30
2022-12-05T13:15:47.846Z,13.10
2022-12-05T13:18:18.932Z,12.90
2022-12-05T13:20:48.953Z,11.50
2022-12-05T13:23:20.496Z,12.07
2022-12-05T13:25:50.825Z,11.80
2022-12-05T13:28:31.341Z,11.47
2022-12-05T13:31:03.525Z,10.37
2022-12-05T13:33:34.523Z,7.10
2022-12-05T13:36:27.698Z,9.90
2022-12-05T13:39:18.324Z,6.50
2022-12-05T13:42:06.185Z,7.00
2022-12-05T13:44:39.457Z,5.97
2022-12-05T13:47:10.493Z,5.80
2022-12-05T13:49:48.791Z,5.13
2022-12-05T13:52:23.097Z,5.00
2022-12-05T13:55:01.631Z,3.37
2022-12-05T13:57:54.681Z,3.33
2022-12-05T14:00:33.881Z,2.80
2022-12-05T14:03:07.990Z,2.77
2022-12-05T14:05:44.644Z,3.63
2022-12-05T14:08:57.894Z,3.13
2022-12-05T14:11:27.243Z,1.97
2022-12-05T14:14:00.743Z,2.50
2022-12-05T14:16:48.181Z,2.40
2022-12-05T14:19:50.988Z,3.20
2022-12-05T14:22:54.437Z,2.37
2022-12-05T14:25:46.532Z,5.50
2022-12-05T14:28:40.201Z,2.10
2022-12-05T14:31:24.925Z,2.73
2022-12-05T14:34:06.869Z,4.50
2022-12-05T14:36:35.010Z,3.87
2022-12-05T14:39:22.432Z,3.90
2022-12-05T14:41:57.854Z,2.90
2022-12-05T14:44:32.306Z,5.03
2022-12-05T14:47:03.668Z,3.37
2022-12-05T14:49:54.241Z,4.90
2022-12-05T14:52:24.974Z,3.50
2022-12-05T14:54:55.028Z,2.97
2022-12-05T14:57:23.534Z,4.33
2022-12-05T14:59:58.002Z,3.40
2022-12-05T15:02:28.809Z,3.77
2022-12-05T15:05:04.421Z,3.70
2022-12-05T15:07:35.050Z,2.40
2022-12-05T15:10:05.968Z,3.63
2022-12-05T15:12:40.741Z,3.93
2022-12-05T15:15:17.357Z,2.70
2022-12-05T15:17:50.470Z,2.80
2022-12-05T15:20:40.115Z,3.83
2022-12-05T15:23:42.941Z,6.87
2022-12-05T15:29:10.931Z,3.67
2022-12-05T15:31:47.039Z,3.77
2022-12-05T15:34:19.001Z,4.87
2022-12-05T15:36:51.803Z,4.83
2022-12-05T15:39:25.727Z,5.17
2022-12-05T15:41:54.513Z,6.17
2022-12-05T15:44:27.256Z,5.40
2022-12-05T15:46:58.769Z,4.70
2022-12-05T15:49:28.667Z,7.90
2022-12-05T15:52:15.928Z,6.40
2022-12-05T15:54:44.800Z,13.03
2022-12-05T15:57:20.347Z,10.50
2022-12-05T15:59:53.172Z,10.60
2022-12-05T16:02:27.387Z,11.03
2022-12-05T16:04:57.632Z,11.60
2022-12-05T16:07:29.892Z,10.33
2022-12-05T16:10:00.780Z,13.77
2022-12-05T16:12:35.571Z,13.63
2022-12-05T16:15:09.347Z,14.07
2022-12-05T16:17:46.179Z,10.07
2022-12-05T16:20:23.913Z,11.40
2022-12-05T16:22:54.668Z,13.70
2022-12-05T16:25:26.533Z,12.40
2022-12-05T16:27:58.497Z,13.13
2022-12-05T16:30:27.288Z,15.10
2022-12-05T16:33:05.208Z,11.83
2022-12-05T16:35:40.292Z,11.03
2022-12-05T16:38:13.001Z,12.00
2022-12-05T16:40:43.438Z,13.20
2022-12-05T16:43:20.447Z,13.73
2022-12-05T16:45:49.853Z,14.10
2022-12-05T16:48:22.303Z,12.30
2022-12-05T16:50:52.209Z,15.00
2022-12-05T16:53:28.036Z,12.20
2022-12-05T16:55:59.125Z,15.00
2022-12-05T16:58:30.185Z,13.67
2022-12-05T17:01:03.782Z,14.50
2022-12-05T17:03:36.036Z,13.03
2022-12-05T17:06:05.365Z,14.07
2022-12-05T17:08:33.179Z,13.40
2022-12-05T17:11:02.194Z,14.27
2022-12-05T17:13:32.008Z,11.10
2022-12-05T17:16:00.416Z,14.53
2022-12-05T17:18:31.900Z,10.87
2022-12-05T17:21:03.356Z,12.63
2022-12-05T17:23:31.562Z,11.03
2022-12-05T17:26:00.472Z,11.13
2022-12-05T17:28:29.447Z,13.37
2022-12-05T17:30:57.243Z,17.97
2022-12-05T17:33:25.924Z,18.97
2022-12-05T17:35:54.289Z,17.93
2022-12-05T17:38:23.429Z,18.37
2022-12-05T17:40:51.764Z,16.27
2022-12-05T17:43:25.308Z,16.47
2022-12-05T17:45:54.709Z,15.57
2022-12-05T17:48:23.445Z,17.70
2022-12-05T17:50:51.335Z,14.00
2022-12-05T17:53:21.513Z,16.30
2022-12-05T17:55:51.741Z,17.60
2022-12-05T17:58:19.646Z,18.77
2022-12-05T18:00:48.334Z,16.03
2022-12-05T18:03:18.603Z,16.70
2022-12-05T18:05:47.451Z,18.53
2022-12-05T18:08:16.922Z,13.27
2022-12-05T18:10:46.191Z,16.30
2022-12-05T18:13:16.133Z,15.53
2022-12-05T18:15:44.387Z,12.33
2022-12-05T18:18:15.757Z,12.60
2022-12-05T18:20:44.383Z,18.83
2022-12-05T18:23:12.807Z,13.87
2022-12-05T18:25:41.917Z,16.33
2022-12-05T18:28:09.974Z,15.53
2022-12-05T18:30:39.709Z,23.67
2022-12-05T18:33:07.568Z,16.17
2022-12-05T18:35:42.396Z,19.20
2022-12-05T18:38:11.686Z,20.43
2022-12-05T18:40:39.474Z,19.27
2022-12-05T18:43:07.699Z,16.97
2022-12-05T18:45:35.383Z,19.00
2022-12-05T18:48:23.205Z,14.90
2022-12-05T18:50:53.512Z,17.70
2022-12-05T18:53:21.189Z,17.17
2022-12-05T18:56:21.452Z,13.87
2022-12-05T18:58:39.283Z,14.43
2022-12-05T19:01:09.390Z,14.57
2022-12-05T19:03:39.773Z,12.50
2022-12-05T19:06:15.790Z,12.47
2022-12-05T19:08:45.616Z,14.87
2022-12-05T19:11:14.038Z,12.40
2022-12-05T19:13:42.069Z,14.50
2022-12-05T19:16:14.297Z,14.03
2022-12-05T19:18:43.443Z,13.37
2022-12-05T19:21:13.731Z,11.50
2022-12-05T19:23:41.819Z,13.07
2022-12-05T19:26:11.411Z,12.13
2022-12-05T19:28:40.604Z,15.67
2022-12-05T19:31:10.166Z,16.23
2022-12-05T19:33:40.656Z,13.87
2022-12-05T19:36:13.022Z,13.43
2022-12-05T19:38:43.625Z,16.23
2022-12-05T19:41:13.517Z,14.10
2022-12-05T19:43:43.316Z,14.00
2022-12-05T19:46:13.724Z,17.67
2022-12-05T19:48:42.301Z,13.53
2022-12-05T19:51:11.681Z,13.77
2022-12-05T19:53:42.033Z,15.40
2022-12-05T19:56:13.776Z,13.37
2022-12-05T19:58:41.930Z,12.43
2022-12-05T20:01:11.422Z,17.58
2022-12-05T20:03:41.128Z,14.33
2022-12-05T20:06:12.237Z,16.53
2022-12-05T20:08:41.415Z,14.90
2022-12-05T20:11:12.166Z,12.83
2022-12-05T20:13:47.103Z,13.10
2022-12-05T20:16:18.663Z,14.83
2022-12-05T20:18:47.422Z,17.63
2022-12-05T20:21:18.682Z,15.23
2022-12-05T20:23:46.920Z,14.17
2022-12-05T20:26:16.688Z,16.03
2022-12-05T20:28:44.928Z,18.63
2022-12-05T20:31:15.596Z,17.67
2022-12-05T20:33:44.435Z,17.73
2022-12-05T20:36:14.260Z,18.33
2022-12-05T20:38:43.853Z,19.70
2022-12-05T20:41:15.342Z,18.07
2022-12-05T20:43:44.993Z,19.33
2022-12-05T20:46:16.093Z,16.23
2022-12-05T20:48:44.627Z,14.07
2022-12-05T20:51:14.358Z,18.10
2022-12-05T20:53:45.190Z,14.00
2022-12-05T20:56:14.583Z,13.87
2022-12-05T20:58:45.866Z,15.63
2022-12-05T21:01:14.537Z,16.93
2022-12-05T21:03:44.939Z,17.33
2022-12-05T21:06:15.398Z,11.50
2022-12-05T21:08:45.160Z,16.57
2022-12-05T21:11:14.008Z,18.00
2022-12-05T21:13:42.333Z,14.80
2022-12-05T21:16:12.616Z,18.63
2022-12-05T21:18:41.859Z,14.33
2022-12-05T21:21:14.580Z,14.33
2022-12-05T21:23:45.121Z,12.57
2022-12-05T21:26:15.453Z,16.67
2022-12-05T21:28:45.279Z,18.60
2022-12-05T21:31:15.236Z,20.33
2022-12-05T21:33:47.616Z,17.10
2022-12-05T21:36:15.829Z,14.60
2022-12-05T21:38:46.632Z,16.60
2022-12-05T21:41:17.747Z,14.60
2022-12-05T21:43:49.576Z,16.03
2022-12-05T21:46:20.627Z,17.30
2022-12-05T21:48:49.037Z,17.33
2022-12-05T21:51:17.406Z,20.70
2022-12-05T21:53:46.481Z,16.83
2022-12-05T21:56:16.484Z,16.13
2022-12-05T21:58:45.660Z,19.03
2022-12-05T22:01:18.565Z,11.27
2022-12-05T22:03:47.209Z,15.40
2022-12-05T22:06:15.644Z,18.10
2022-12-05T22:08:44.497Z,16.77
2022-12-05T22:11:16.150Z,16.40
2022-12-05T22:13:45.823Z,19.40
2022-12-05T22:16:14.404Z,18.07
2022-12-05T22:18:42.816Z,16.50
2022-12-05T22:21:13.674Z,14.77
2022-12-05T22:23:42.835Z,15.40
2022-12-05T22:26:14.161Z,16.43
2022-12-05T22:28:42.030Z,15.30
2022-12-05T22:31:14.027Z,17.03
2022-12-05T22:33:42.269Z,15.13
2022-12-05T22:36:12.546Z,18.80
2022-12-05T22:38:43.191Z,16.30
2022-12-05T22:41:15.945Z,20.97
2022-12-05T22:43:45.835Z,15.03
2022-12-05T22:46:17.822Z,14.47
2022-12-05T22:48:46.129Z,13.83
2022-12-05T22:51:15.246Z,14.43
2022-12-05T22:53:44.897Z,13.60
2022-12-05T22:56:15.911Z,16.80
2022-12-05T22:58:44.801Z,19.67
2022-12-05T23:01:14.292Z,15.40
2022-12-05T23:03:43.814Z,14.63
2022-12-05T23:06:13.123Z,16.80
2022-12-05T23:08:42.487Z,17.57
2022-12-05T23:11:11.546Z,13.53
2022-12-05T23:13:41.119Z,16.67
2022-12-05T23:16:10.639Z,14.73
2022-12-05T23:18:47.589Z,14.00
2022-12-05T23:21:18.493Z,14.30
2022-12-05T23:23:47.065Z,17.17
2022-12-05T23:26:15.985Z,14.67
2022-12-05T23:28:45.761Z,15.97
2022-12-05T23:31:14.472Z,18.20
2022-12-05T23:33:43.341Z,16.60
2022-12-05T23:36:11.944Z,19.50
2022-12-05T23:38:41.691Z,16.03
2022-12-05T23:41:13.437Z,18.60
2022-12-05T23:43:43.009Z,14.80
2022-12-05T23:46:14.501Z,13.77
2022-12-05T23:48:44.205Z,14.23
2022-12-05T23:51:14.831Z,13.17
2022-12-05T23:53:45.560Z,18.77
2022-12-05T23:56:15.854Z,20.23
2022-12-05T23:58:44.422Z,15.60
